Time;durP1;ratioP1;P1;durP2;ratioP2;P2;SDS_P1;SDS_P2;PMS_P1;PMS_P2;Temp;Humidity;BMP_temperature;BMP_pressure;BME280_temperature;BME280_humidity;BME280_pressure;Samples;Min_cycle;Max_cycle;Signal;HPM_P1;HPM_P2
2022/12/07 00:01:15;;;;;;;10.43;7.80;;;3.60;99.90;;;;;;4938202;29;20220;-85
2022/12/07 00:03:43;;;;;;;8.90;7.33;;;3.60;99.90;;;;;;4938870;29;20176;-86
2022/12/07 00:06:11;;;;;;;10.60;7.83;;;3.60;99.90;;;;;;4940382;29;20172;-84
2022/12/07 00:08:37;;;;;;;10.07;7.53;;;3.60;99.90;;;;;;4938885;29;20178;-84
2022/12/07 00:11:24;;;;;;;11.87;7.53;;;3.60;99.90;;;;;;4938015;29;20512;-84
2022/12/07 00:13:56;;;;;;;10.87;8.17;;;3.60;99.90;;;;;;4938162;29;20160;-85
2022/12/07 00:16:27;;;;;;;12.73;7.50;;;3.60;99.90;;;;;;4938018;29;20184;-86
2022/12/07 00:18:53;;;;;;;11.97;8.53;;;3.60;99.90;;;;;;4943022;29;20223;-84
2022/12/07 00:21:22;;;;;;;9.73;7.37;;;3.60;99.90;;;;;;4940808;29;20608;-85
2022/12/07 00:23:49;;;;;;;8.60;7.00;;;3.70;99.90;;;;;;4938259;29;20199;-85
2022/12/07 00:26:16;;;;;;;10.53;7.67;;;3.70;99.90;;;;;;4939134;29;20172;-81
2022/12/07 00:29:03;;;;;;;13.13;7.70;;;3.70;99.90;;;;;;4943086;29;20179;-85
2022/12/07 00:31:34;;;;;;;9.53;7.47;;;3.50;99.90;;;;;;4938129;29;20160;-82
2022/12/07 00:34:00;;;;;;;9.90;7.40;;;3.40;99.90;;;;;;4937781;29;20173;-81
2022/12/07 00:36:26;;;;;;;8.70;7.13;;;3.20;99.90;;;;;;4938836;29;20517;-83
2022/12/07 00:38:53;;;;;;;11.63;7.50;;;3.20;99.90;;;;;;4928674;29;20230;-84
2022/12/07 00:41:22;;;;;;;9.90;7.20;;;3.30;99.90;;;;;;4937807;29;20168;-85
2022/12/07 00:43:49;;;;;;;10.47;7.27;;;3.40;99.90;;;;;;4937618;29;20201;-84
2022/12/07 00:46:16;;;;;;;8.17;7.20;;;3.40;99.90;;;;;;4920720;29;20237;-85
2022/12/07 00:48:42;;;;;;;8.93;6.90;;;3.30;99.90;;;;;;4938156;29;20717;-84
2022/12/07 00:51:10;;;;;;;12.33;7.80;;;3.20;99.90;;;;;;4939367;29;20258;-86
2022/12/07 00:53:37;;;;;;;9.73;7.23;;;3.10;99.90;;;;;;4940536;29;20187;-86
2022/12/07 00:56:14;;;;;;;8.23;7.00;;;3.20;99.90;;;;;;4948768;29;20188;-85
2022/12/07 00:58:40;;;;;;;11.00;7.37;;;3.30;99.90;;;;;;4949772;29;20199;-83
2022/12/07 01:01:07;;;;;;;10.27;7.70;;;3.30;99.90;;;;;;4946083;29;20228;-85
2022/12/07 01:03:35;;;;;;;9.10;6.77;;;3.30;99.90;;;;;;4957404;29;20190;-83
2022/12/07 01:06:01;;;;;;;11.43;7.60;;;3.30;99.90;;;;;;4945374;29;20195;-82
2022/12/07 01:08:27;;;;;;;10.10;7.27;;;3.30;99.90;;;;;;4939146;29;20640;-83
2022/12/07 01:11:02;;;;;;;10.17;7.63;;;3.30;99.90;;;;;;4920552;29;20191;-84
2022/12/07 01:13:29;;;;;;;9.87;7.40;;;3.30;99.90;;;;;;4937086;29;20650;-83
2022/12/07 01:15:59;;;;;;;10.80;7.80;;;3.30;99.90;;;;;;4937065;29;20538;-85
2022/12/07 01:18:26;;;;;;;11.87;8.10;;;3.30;99.90;;;;;;4937127;29;20200;-85
2022/12/07 01:21:10;;;;;;;10.47;7.50;;;3.30;99.90;;;;;;4937011;29;20543;-85
2022/12/07 01:23:36;;;;;;;8.93;6.70;;;3.20;99.90;;;;;;4937563;29;20178;-82
2022/12/07 01:26:05;;;;;;;8.20;7.27;;;3.10;99.90;;;;;;4939048;29;20263;-80
2022/12/07 01:28:32;;;;;;;9.07;7.23;;;3.10;99.90;;;;;;4943157;29;20207;-80
2022/12/07 01:31:01;;;;;;;10.43;6.93;;;3.20;99.90;;;;;;4943283;29;20200;-83
2022/12/07 01:33:29;;;;;;;9.87;7.20;;;3.10;99.90;;;;;;4937379;29;20182;-81
2022/12/07 01:36:08;;;;;;;11.20;7.57;;;3.00;99.90;;;;;;4938371;29;20256;-83
2022/12/07 01:38:34;;;;;;;11.00;7.83;;;3.20;99.90;;;;;;4922674;29;20260;-86
2022/12/07 01:41:03;;;;;;;9.90;6.80;;;3.20;99.90;;;;;;4937315;29;20168;-86
2022/12/07 01:43:32;;;;;;;11.23;7.10;;;3.20;99.90;;;;;;4936914;29;20172;-85
2022/12/07 01:45:58;;;;;;;12.10;7.83;;;3.20;99.90;;;;;;4936545;29;20176;-84
2022/12/07 01:48:30;;;;;;;11.33;7.30;;;3.20;99.90;;;;;;4936837;29;20236;-84
2022/12/07 01:50:59;;;;;;;11.63;7.57;;;3.20;99.90;;;;;;4936643;29;20172;-85
2022/12/07 01:53:28;;;;;;;14.47;7.63;;;3.20;99.90;;;;;;4939348;29;20183;-83
2022/12/07 01:55:56;;;;;;;10.63;7.30;;;3.20;99.90;;;;;;4940669;29;20234;-85
2022/12/07 01:58:23;;;;;;;13.67;8.23;;;3.10;99.90;;;;;;4940330;29;20220;-84
2022/12/07 02:00:49;;;;;;;10.93;7.47;;;3.20;99.90;;;;;;4937458;29;20225;-85
2022/12/07 02:03:53;;;;;;;12.07;7.73;;;3.20;99.90;;;;;;4937901;29;20187;-86
2022/12/07 02:06:24;;;;;;;10.23;8.10;;;3.10;99.90;;;;;;4846459;29;20184;-82
2022/12/07 02:08:53;;;;;;;11.43;8.07;;;2.90;99.90;;;;;;4846383;29;20760;-85
2022/12/07 02:11:20;;;;;;;12.07;7.63;;;3.00;99.90;;;;;;4850073;29;20276;-85
2022/12/07 02:13:47;;;;;;;12.07;7.83;;;3.10;99.90;;;;;;4841427;29;20179;-84
2022/12/07 02:16:28;;;;;;;10.00;7.80;;;3.10;99.90;;;;;;4840504;29;20191;-83
2022/12/07 02:19:20;;;;;;;13.53;8.47;;;3.20;99.90;;;;;;4840294;29;20297;-84
2022/12/07 02:22:12;;;;;;;10.80;7.83;;;3.30;99.90;;;;;;4840456;29;20679;-81
2022/12/07 02:25:02;;;;;;;14.27;7.87;;;3.20;99.90;;;;;;4840564;29;20308;-83
2022/12/07 02:27:47;;;;;;;13.03;7.87;;;3.20;99.90;;;;;;4840900;29;20192;-84
2022/12/07 02:30:19;;;;;;;11.13;7.47;;;3.20;99.90;;;;;;4825859;29;20191;-85
2022/12/07 02:32:54;;;;;;;13.80;7.73;;;3.30;99.90;;;;;;4845630;29;20268;-84
2022/12/07 02:35:33;;;;;;;10.80;7.00;;;3.20;99.90;;;;;;4848436;29;20175;-84
2022/12/07 02:38:07;;;;;;;13.60;6.93;;;3.10;99.90;;;;;;4926695;29;20217;-83
2022/12/07 02:40:46;;;;;;;16.33;8.33;;;3.10;99.90;;;;;;4921997;29;20181;-84
2022/12/07 02:43:30;;;;;;;11.23;7.57;;;3.00;99.90;;;;;;4939448;29;20189;-84
2022/12/07 02:46:01;;;;;;;10.47;7.50;;;3.10;99.90;;;;;;4939005;29;20171;-85
2022/12/07 02:48:28;;;;;;;11.20;7.83;;;2.90;99.90;;;;;;4939295;29;20165;-83
2022/12/07 02:50:54;;;;;;;11.00;6.90;;;2.90;99.90;;;;;;4953349;29;20176;-81
2022/12/07 02:53:30;;;;;;;11.77;7.03;;;2.90;99.90;;;;;;4946251;29;20195;-82
2022/12/07 02:55:57;;;;;;;9.03;6.03;;;2.90;99.90;;;;;;4919652;29;20636;-82
2022/12/07 02:58:34;;;;;;;9.53;7.27;;;2.90;99.90;;;;;;4936195;29;20209;-83
2022/12/07 03:01:21;;;;;;;8.53;6.77;;;2.90;99.90;;;;;;4918100;29;20235;-83
2022/12/07 03:03:55;;;;;;;11.27;6.77;;;2.80;99.90;;;;;;4938768;29;20651;-81
2022/12/07 03:06:32;;;;;;;11.67;7.47;;;2.90;99.90;;;;;;4939451;29;20244;-84
2022/12/07 03:09:17;;;;;;;9.90;6.70;;;2.90;99.90;;;;;;4940302;29;20168;-84
2022/12/07 03:11:51;;;;;;;9.93;6.40;;;3.00;99.90;;;;;;4937402;29;20203;-79
2022/12/07 03:14:25;;;;;;;6.93;6.07;;;2.90;99.90;;;;;;4939143;29;20165;-79
2022/12/07 03:17:01;;;;;;;10.87;6.10;;;2.90;99.90;;;;;;4939082;29;20180;-78
2022/12/07 03:19:27;;;;;;;7.73;6.27;;;2.90;99.90;;;;;;4939767;29;20169;-82
2022/12/07 03:22:03;;;;;;;9.10;5.83;;;2.80;99.90;;;;;;4939697;29;20172;-79
2022/12/07 03:24:36;;;;;;;7.97;6.47;;;2.80;99.90;;;;;;4938842;29;20278;-85
2022/12/07 03:27:13;;;;;;;8.17;6.37;;;2.80;99.90;;;;;;4921553;29;20180;-81
2022/12/07 03:29:48;;;;;;;8.90;5.80;;;2.80;99.90;;;;;;4921989;29;20256;-85
2022/12/07 03:32:22;;;;;;;8.70;5.87;;;2.80;99.90;;;;;;4942130;29;20167;-84
2022/12/07 03:34:59;;;;;;;7.10;5.80;;;2.90;99.90;;;;;;4935878;29;20172;-85
2022/12/07 03:37:36;;;;;;;7.83;5.70;;;2.80;99.90;;;;;;4937193;29;20293;-84
2022/12/07 03:40:02;;;;;;;6.87;5.00;;;2.70;99.90;;;;;;4938271;29;20168;-84
2022/12/07 03:42:29;;;;;;;7.00;5.30;;;2.70;99.90;;;;;;4938287;29;20243;-84
2022/12/07 03:44:55;;;;;;;8.07;5.57;;;2.70;99.90;;;;;;4922538;29;20180;-84
2022/12/07 03:47:26;;;;;;;6.93;5.50;;;2.70;99.90;;;;;;4941865;29;20207;-82
2022/12/07 03:50:00;;;;;;;6.90;5.00;;;2.70;99.90;;;;;;4946563;29;20184;-83
2022/12/07 03:52:51;;;;;;;5.33;4.87;;;2.70;99.90;;;;;;4939112;29;20525;-83
2022/12/07 03:55:28;;;;;;;6.77;5.10;;;2.70;99.90;;;;;;4938453;29;20199;-82
2022/12/07 03:58:09;;;;;;;8.30;5.40;;;2.70;99.90;;;;;;4921245;29;20211;-84
2022/12/07 04:00:36;;;;;;;7.17;5.40;;;2.60;99.90;;;;;;4938378;29;20256;-86
2022/12/07 04:03:01;;;;;;;9.20;5.80;;;2.60;99.90;;;;;;4921115;29;20215;-82
2022/12/07 04:05:30;;;;;;;5.73;5.13;;;2.40;99.90;;;;;;4921526;29;20279;-84
2022/12/07 04:07:56;;;;;;;5.77;4.60;;;2.50;99.90;;;;;;4921690;29;20183;-84
2022/12/07 04:10:22;;;;;;;6.73;5.40;;;2.50;99.90;;;;;;4939973;29;21108;-84
2022/12/07 04:12:48;;;;;;;7.43;5.87;;;2.50;99.90;;;;;;4942371;29;20211;-79
2022/12/07 04:15:14;;;;;;;6.73;5.47;;;2.50;99.90;;;;;;4937278;29;20186;-81
2022/12/07 04:17:39;;;;;;;6.33;5.03;;;2.60;99.90;;;;;;4921391;29;20208;-80
2022/12/07 04:20:06;;;;;;;7.83;6.40;;;2.70;99.90;;;;;;4925281;29;20616;-83
2022/12/07 04:22:32;;;;;;;6.57;5.30;;;2.70;99.90;;;;;;4939081;29;20185;-83
2022/12/07 04:24:58;;;;;;;7.90;5.67;;;2.80;99.90;;;;;;4938624;29;20259;-83
2022/12/07 04:27:24;;;;;;;6.20;5.40;;;2.80;99.90;;;;;;4937891;29;20628;-84
2022/12/07 04:29:49;;;;;;;5.90;5.00;;;2.70;99.90;;;;;;4938351;29;20188;-85
2022/12/07 04:32:15;;;;;;;6.73;5.30;;;2.70;99.90;;;;;;4939704;29;20181;-84
2022/12/07 04:34:41;;;;;;;6.17;5.17;;;2.70;99.90;;;;;;4943073;29;20183;-85
2022/12/07 04:37:09;;;;;;;6.80;5.33;;;2.70;99.90;;;;;;4940293;29;20676;-82
2022/12/07 04:39:35;;;;;;;8.53;5.43;;;2.80;99.90;;;;;;4943227;29;20177;-79
2022/12/07 04:42:01;;;;;;;6.43;5.30;;;2.70;99.90;;;;;;4945493;29;20273;-82
2022/12/07 04:44:28;;;;;;;8.43;5.47;;;2.70;99.90;;;;;;4939788;29;20185;-83
2022/12/07 04:46:55;;;;;;;8.90;6.07;;;2.70;99.90;;;;;;4938188;29;20185;-82
2022/12/07 04:49:21;;;;;;;6.87;5.70;;;2.70;99.90;;;;;;4937401;29;20641;-83
2022/12/07 04:51:47;;;;;;;7.30;6.03;;;2.80;99.90;;;;;;4939456;29;20562;-79
2022/12/07 04:54:14;;;;;;;6.00;5.40;;;2.80;99.90;;;;;;4936843;29;20177;-80
2022/12/07 04:56:40;;;;;;;8.30;5.63;;;2.70;99.90;;;;;;4920208;29;20220;-81
2022/12/07 04:59:07;;;;;;;6.10;5.33;;;2.80;99.90;;;;;;4937587;29;20271;-82
2022/12/07 05:01:35;;;;;;;6.20;5.27;;;2.80;99.90;;;;;;4938380;29;20226;-80
2022/12/07 05:04:01;;;;;;;5.70;5.10;;;2.70;99.90;;;;;;4939085;29;20185;-78
2022/12/07 05:06:27;;;;;;;8.07;6.10;;;2.80;99.90;;;;;;4937714;29;20176;-79
2022/12/07 05:08:53;;;;;;;6.77;5.63;;;2.80;99.90;;;;;;4940216;29;20176;-81
2022/12/07 05:14:11;;;;;;;7.07;5.60;;;2.70;99.90;;;;;;4937485;29;20651;-84
2022/12/07 05:16:41;;;;;;;8.10;5.90;;;2.70;99.90;;;;;;4937235;29;20252;-82
2022/12/07 05:19:08;;;;;;;8.13;6.10;;;2.70;99.90;;;;;;4937216;29;20231;-80
2022/12/07 05:21:34;;;;;;;13.43;7.57;;;2.80;99.90;;;;;;4919608;29;20697;-85
2022/12/07 05:24:00;;;;;;;14.10;10.23;;;2.80;99.90;;;;;;4937655;29;20236;-84
2022/12/07 05:26:26;;;;;;;9.27;6.60;;;2.90;99.90;;;;;;4936365;29;20172;-86
2022/12/07 05:28:54;;;;;;;8.40;5.77;;;2.90;99.90;;;;;;4937244;29;20661;-82
2022/12/07 05:31:20;;;;;;;6.57;5.83;;;2.80;99.90;;;;;;4937290;29;20249;-85
2022/12/07 05:33:47;;;;;;;7.33;6.27;;;2.70;99.90;;;;;;4936866;29;20177;-79
2022/12/07 05:36:13;;;;;;;10.50;6.73;;;2.70;99.90;;;;;;4936844;29;20172;-83
2022/12/07 05:38:39;;;;;;;9.77;6.77;;;2.70;99.90;;;;;;4936673;29;20298;-83
2022/12/07 05:41:06;;;;;;;9.10;6.47;;;2.70;99.90;;;;;;4937159;29;20223;-83
2022/12/07 05:43:33;;;;;;;8.27;6.23;;;2.70;99.90;;;;;;4920139;29;20267;-84
2022/12/07 05:45:59;;;;;;;9.10;7.03;;;2.60;99.90;;;;;;4939293;29;20172;-85
2022/12/07 05:48:25;;;;;;;9.90;6.53;;;2.60;99.90;;;;;;4951212;29;20199;-84
2022/12/07 05:50:52;;;;;;;11.80;6.80;;;2.60;99.90;;;;;;4943233;29;20191;-83
2022/12/07 05:53:18;;;;;;;7.70;6.20;;;2.60;99.90;;;;;;4942078;29;20720;-84
2022/12/07 05:55:44;;;;;;;8.27;6.20;;;2.50;99.90;;;;;;4937453;29;20173;-82
2022/12/07 06:00:55;;;;;;;9.33;6.03;;;2.40;99.90;;;;;;4936690;29;20230;-83
2022/12/07 06:03:21;;;;;;;8.33;6.30;;;2.40;99.90;;;;;;4937912;29;20188;-83
2022/12/07 06:05:47;;;;;;;7.90;6.37;;;2.40;99.90;;;;;;4940028;29;20588;-83
2022/12/07 06:08:14;;;;;;;8.13;6.13;;;2.50;99.90;;;;;;4944422;29;20566;-83
2022/12/07 06:10:41;;;;;;;8.73;6.43;;;2.50;99.90;;;;;;4943819;29;20170;-84
2022/12/07 06:13:07;;;;;;;8.90;7.00;;;2.50;99.90;;;;;;4945861;29;20598;-83
2022/12/07 06:15:35;;;;;;;8.63;6.23;;;2.60;99.90;;;;;;4942099;29;20168;-80
2022/12/07 06:18:01;;;;;;;9.13;6.73;;;2.60;99.90;;;;;;4940293;29;20216;-80
2022/12/07 06:20:27;;;;;;;10.13;6.80;;;2.60;99.90;;;;;;4940088;29;20269;-82
2022/12/07 06:22:53;;;;;;;8.73;6.33;;;2.60;99.90;;;;;;4939782;29;20234;-82
2022/12/07 06:25:18;;;;;;;6.80;6.00;;;2.50;99.90;;;;;;4938608;29;20176;-82
2022/12/07 06:27:44;;;;;;;6.43;5.73;;;2.60;99.90;;;;;;4947054;29;20190;-86
2022/12/07 06:30:10;;;;;;;7.83;6.37;;;2.50;99.90;;;;;;4948755;29;20188;-82
2022/12/07 06:32:37;;;;;;;12.20;6.93;;;2.60;99.90;;;;;;4953589;29;20203;-85
2022/12/07 06:35:03;;;;;;;9.77;7.30;;;2.60;99.90;;;;;;4937566;29;20199;-83
2022/12/07 06:37:29;;;;;;;12.43;7.47;;;2.60;99.90;;;;;;4937050;29;20219;-82
2022/12/07 06:39:56;;;;;;;11.57;7.23;;;2.60;99.90;;;;;;4936955;29;20708;-87
2022/12/07 06:42:21;;;;;;;8.47;6.47;;;2.40;99.90;;;;;;4937375;29;20184;-83
2022/12/07 06:44:47;;;;;;;8.00;6.73;;;2.50;99.90;;;;;;4920709;29;20190;-78
2022/12/07 06:47:13;;;;;;;8.03;6.30;;;2.60;99.90;;;;;;4937441;29;20180;-81
2022/12/07 06:49:39;;;;;;;8.50;6.37;;;2.70;99.90;;;;;;4936169;29;20223;-79
2022/12/07 06:52:05;;;;;;;9.60;6.70;;;2.70;99.90;;;;;;4936790;29;20648;-78
2022/12/07 06:54:31;;;;;;;10.47;6.67;;;2.70;99.90;;;;;;4920135;29;20203;-85
2022/12/07 06:56:57;;;;;;;9.87;7.23;;;2.80;99.90;;;;;;4937941;29;20184;-85
2022/12/07 06:59:23;;;;;;;8.90;7.37;;;2.70;99.90;;;;;;4938108;29;20262;-85
2022/12/07 07:01:49;;;;;;;9.93;7.10;;;2.70;99.90;;;;;;4938441;29;20243;-86
2022/12/07 07:04:15;;;;;;;10.13;6.87;;;2.80;99.90;;;;;;4936351;29;20589;-85
2022/12/07 07:06:41;;;;;;;8.73;6.73;;;2.80;99.90;;;;;;4935580;29;20267;-85
2022/12/07 07:09:07;;;;;;;10.67;7.20;;;2.80;99.90;;;;;;4935647;29;20284;-84
2022/12/07 07:11:32;;;;;;;11.50;6.80;;;2.90;99.90;;;;;;4935978;29;20208;-85
2022/12/07 07:14:02;;;;;;;11.93;8.30;;;2.90;99.90;;;;;;4918951;29;20184;-85
2022/12/07 07:16:32;;;;;;;11.53;7.23;;;2.90;99.90;;;;;;4935930;29;20190;-81
2022/12/07 07:18:58;;;;;;;11.47;7.50;;;2.90;99.90;;;;;;4936196;29;20295;-86
2022/12/07 07:21:24;;;;;;;9.90;7.07;;;2.80;99.90;;;;;;4937423;29;20212;-84
2022/12/07 07:23:50;;;;;;;11.20;7.93;;;2.90;99.90;;;;;;4938984;29;20244;-81
2022/12/07 07:26:15;;;;;;;8.63;6.73;;;2.90;99.90;;;;;;4937293;29;20172;-85
2022/12/07 07:28:41;;;;;;;9.43;7.07;;;3.00;99.90;;;;;;4944444;29;20246;-81
2022/12/07 07:31:07;;;;;;;10.23;7.10;;;2.90;99.90;;;;;;4939083;29;20202;-83
2022/12/07 07:33:33;;;;;;;10.67;7.10;;;3.00;99.90;;;;;;4936194;29;20180;-81
2022/12/07 07:35:59;;;;;;;9.60;7.13;;;3.00;99.90;;;;;;4935965;29;20173;-85
2022/12/07 07:38:25;;;;;;;8.70;6.67;;;3.10;99.90;;;;;;4935812;29;20215;-84
2022/12/07 07:40:50;;;;;;;12.93;7.80;;;3.00;99.90;;;;;;4935665;29;20180;-85
2022/12/07 07:43:16;;;;;;;13.33;8.53;;;3.00;99.90;;;;;;4939951;29;20704;-83
2022/12/07 07:45:42;;;;;;;11.83;8.53;;;2.90;99.90;;;;;;4939378;29;20182;-85
2022/12/07 07:48:08;;;;;;;11.33;7.27;;;3.00;99.90;;;;;;4920760;29;20513;-84
2022/12/07 07:50:34;;;;;;;10.80;7.63;;;3.10;99.90;;;;;;4940316;29;20207;-85
2022/12/07 07:53:00;;;;;;;10.57;7.80;;;3.20;99.90;;;;;;4948371;29;20259;-83
2022/12/07 07:55:25;;;;;;;11.13;8.20;;;3.20;99.90;;;;;;4946021;29;20664;-85
2022/12/07 07:57:51;;;;;;;11.80;7.67;;;3.30;99.90;;;;;;4944086;29;20299;-83
2022/12/07 08:00:17;;;;;;;12.40;8.90;;;3.40;99.90;;;;;;4939104;29;20245;-82
2022/12/07 08:02:43;;;;;;;13.77;8.87;;;3.40;99.90;;;;;;4940252;29;20184;-83
2022/12/07 08:05:11;;;;;;;15.50;9.00;;;3.40;99.90;;;;;;4939501;29;20526;-82
2022/12/07 08:07:37;;;;;;;16.97;9.87;;;3.50;99.90;;;;;;4940363;29;20176;-84
2022/12/07 08:10:04;;;;;;;16.20;10.33;;;3.50;99.90;;;;;;4940885;29;20200;-82
2022/12/07 08:12:29;;;;;;;13.53;9.03;;;3.50;99.90;;;;;;4942039;29;20197;-82
2022/12/07 08:14:55;;;;;;;18.30;10.20;;;3.50;99.90;;;;;;4941846;29;20184;-82
2022/12/07 08:17:21;;;;;;;14.53;9.50;;;3.50;99.90;;;;;;4945711;29;20220;-83
2022/12/07 08:19:47;;;;;;;14.70;9.23;;;3.50;99.90;;;;;;4944984;29;20176;-81
2022/12/07 08:22:12;;;;;;;17.50;10.07;;;3.60;99.90;;;;;;4924793;29;20187;-84
2022/12/07 08:24:38;;;;;;;14.63;9.37;;;3.70;99.90;;;;;;4921605;29;20184;-83
2022/12/07 08:27:04;;;;;;;16.83;9.63;;;3.70;99.90;;;;;;4939864;29;20541;-81
2022/12/07 08:29:30;;;;;;;16.57;9.67;;;3.80;99.90;;;;;;4939925;29;20579;-81
2022/12/07 08:31:56;;;;;;;17.00;9.03;;;3.90;99.90;;;;;;4941709;29;20549;-79
2022/12/07 08:34:22;;;;;;;14.83;9.50;;;3.90;99.90;;;;;;4940702;29;20176;-82
2022/12/07 08:36:47;;;;;;;17.43;9.07;;;3.90;99.90;;;;;;4923755;29;20184;-81
2022/12/07 08:39:13;;;;;;;18.93;8.77;;;3.90;99.90;;;;;;4927896;29;20283;-85
2022/12/07 08:41:41;;;;;;;15.17;10.20;;;3.90;99.90;;;;;;4941718;29;20172;-84
2022/12/07 08:44:08;;;;;;;15.47;9.17;;;4.00;99.90;;;;;;4947338;29;20187;-83
2022/12/07 08:47:00;;;;;;;15.73;9.63;;;4.10;99.90;;;;;;4945072;29;20219;-85
2022/12/07 08:49:37;;;;;;;15.77;9.83;;;4.20;99.90;;;;;;4938653;29;20161;-82
2022/12/07 08:52:04;;;;;;;16.60;9.77;;;4.20;99.90;;;;;;4938457;29;20683;-85
2022/12/07 08:54:30;;;;;;;18.73;9.50;;;4.30;99.90;;;;;;4938739;29;20177;-83
2022/12/07 08:56:56;;;;;;;12.70;8.97;;;4.20;99.90;;;;;;4939086;29;20263;-84
2022/12/07 08:59:23;;;;;;;14.77;9.17;;;4.20;99.90;;;;;;4938822;29;20548;-84
2022/12/07 09:01:49;;;;;;;14.53;9.23;;;4.20;99.90;;;;;;4938195;29;20298;-84
2022/12/07 09:04:15;;;;;;;15.70;10.23;;;4.20;99.90;;;;;;4938750;29;20203;-85
2022/12/07 09:06:42;;;;;;;17.27;10.53;;;4.30;99.90;;;;;;4947212;29;20176;-82
2022/12/07 09:09:09;;;;;;;18.43;10.87;;;4.30;99.90;;;;;;4940397;29;20195;-84
2022/12/07 09:11:34;;;;;;;17.57;10.30;;;4.30;99.90;;;;;;4941599;29;20197;-85
2022/12/07 09:14:00;;;;;;;15.97;9.30;;;4.40;99.90;;;;;;4938082;29;20629;-85
2022/12/07 09:16:26;;;;;;;17.77;9.40;;;4.40;99.90;;;;;;4939848;29;20748;-84
2022/12/07 09:18:52;;;;;;;17.67;10.17;;;4.40;99.90;;;;;;4944219;29;20291;-81
2022/12/07 09:21:18;;;;;;;15.67;10.13;;;4.40;99.90;;;;;;4928763;29;20187;-84
2022/12/07 09:23:44;;;;;;;17.97;10.83;;;4.50;99.90;;;;;;4942368;29;20699;-85
2022/12/07 09:26:09;;;;;;;14.53;10.00;;;4.50;99.90;;;;;;4938912;29;20660;-86
2022/12/07 09:28:35;;;;;;;16.63;10.00;;;4.50;99.90;;;;;;4941253;29;20181;-84
2022/12/07 09:31:02;;;;;;;16.43;10.27;;;4.50;99.90;;;;;;4938490;29;20184;-83
2022/12/07 09:33:28;;;;;;;15.87;9.90;;;4.60;99.90;;;;;;4944581;29;20259;-85
2022/12/07 09:35:54;;;;;;;14.73;9.60;;;4.60;99.90;;;;;;4940001;29;20231;-85
2022/12/07 09:38:20;;;;;;;15.83;9.87;;;4.70;99.90;;;;;;4930563;29;20222;-85
2022/12/07 09:40:47;;;;;;;16.03;10.50;;;4.70;99.90;;;;;;4938872;29;20234;-83
2022/12/07 09:43:31;;;;;;;14.33;10.00;;;4.70;99.90;;;;;;4920821;29;20195;-85
2022/12/07 09:45:57;;;;;;;16.27;10.23;;;4.70;99.90;;;;;;4941293;29;20168;-80
2022/12/07 09:48:31;;;;;;;17.73;9.93;;;4.60;99.90;;;;;;4938983;29;20171;-80
2022/12/07 09:50:59;;;;;;;15.37;9.50;;;4.70;99.90;;;;;;4937961;29;20251;-85
2022/12/07 09:53:36;;;;;;;14.33;10.00;;;4.70;99.90;;;;;;4937853;29;20242;-84
2022/12/07 09:56:03;;;;;;;19.50;10.67;;;4.70;99.90;;;;;;4940501;29;20196;-79
2022/12/07 09:58:30;;;;;;;13.70;9.70;;;4.80;99.90;;;;;;4942890;29;20689;-84
2022/12/07 10:01:05;;;;;;;17.90;9.77;;;4.80;99.90;;;;;;4938148;29;20260;-78
2022/12/07 10:03:31;;;;;;;15.70;10.03;;;4.80;99.90;;;;;;4938925;29;20274;-80
2022/12/07 10:05:57;;;;;;;14.80;9.07;;;4.80;99.90;;;;;;4942690;29;20168;-78
2022/12/07 10:08:24;;;;;;;13.67;9.30;;;4.80;99.90;;;;;;4938887;29;20188;-77
2022/12/07 10:10:53;;;;;;;14.07;10.13;;;4.70;99.90;;;;;;4937085;29;20210;-82
2022/12/07 10:13:37;;;;;;;15.03;9.50;;;4.70;99.90;;;;;;4938747;29;20175;-78
2022/12/07 10:16:03;;;;;;;16.93;9.60;;;4.70;99.90;;;;;;4920821;29;20190;-78
2022/12/07 10:18:38;;;;;;;15.50;9.47;;;4.70;99.90;;;;;;4937285;29;20203;-81
2022/12/07 10:21:23;;;;;;;14.33;9.87;;;4.70;99.90;;;;;;4937628;29;20169;-84
2022/12/07 10:24:12;;;;;;;18.77;10.40;;;4.70;99.90;;;;;;4938246;29;20166;-85
2022/12/07 10:26:46;;;;;;;17.67;10.30;;;4.70;99.90;;;;;;4938048;29;20173;-85
2022/12/07 10:29:31;;;;;;;16.43;10.50;;;4.80;99.90;;;;;;4938858;29;20250;-82
2022/12/07 10:32:17;;;;;;;16.07;10.63;;;4.90;99.90;;;;;;4937537;29;20156;-83
2022/12/07 10:34:43;;;;;;;17.43;10.83;;;4.90;99.90;;;;;;4939728;29;20191;-85
2022/12/07 10:37:09;;;;;;;14.83;10.70;;;4.90;99.90;;;;;;4941658;29;20668;-84
2022/12/07 10:39:48;;;;;;;16.90;10.73;;;5.10;99.90;;;;;;4938588;29;20266;-84
2022/12/07 10:42:29;;;;;;;15.63;10.83;;;5.10;99.90;;;;;;4942177;29;20162;-83
2022/12/07 10:45:15;;;;;;;16.33;10.97;;;5.20;99.90;;;;;;4947937;29;20179;-83
2022/12/07 10:47:58;;;;;;;19.77;12.00;;;5.40;99.90;;;;;;4940208;29;20171;-83
2022/12/07 10:50:30;;;;;;;19.03;11.23;;;5.50;99.90;;;;;;4949115;29;20156;-81
2022/12/07 10:53:37;;;;;;;21.37;11.83;;;5.50;99.90;;;;;;4940904;29;20164;-84
2022/12/07 10:56:03;;;;;;;17.87;11.87;;;5.50;99.90;;;;;;4936862;29;20181;-84
2022/12/07 10:58:50;;;;;;;15.93;10.80;;;5.40;99.90;;;;;;4919950;29;20739;-81
2022/12/07 11:01:31;;;;;;;17.77;11.27;;;5.20;99.90;;;;;;4936239;29;20228;-82
2022/12/07 11:04:36;;;;;;;18.00;11.63;;;5.10;99.90;;;;;;4920227;29;20174;-80
2022/12/07 11:07:39;;;;;;;17.00;10.70;;;5.00;99.90;;;;;;4858952;29;20225;-82
2022/12/07 11:10:18;;;;;;;17.43;11.03;;;4.90;99.90;;;;;;4859046;29;20235;-81
2022/12/07 11:12:52;;;;;;;18.53;11.93;;;4.90;99.90;;;;;;4858740;29;20179;-83
2022/12/07 11:15:37;;;;;;;20.47;12.67;;;4.80;99.90;;;;;;4858827;29;20667;-84
2022/12/07 11:18:32;;;;;;;20.37;11.90;;;5.00;99.90;;;;;;4860114;29;20214;-87
2022/12/07 11:21:34;;;;;;;21.10;12.13;;;4.90;99.90;;;;;;4859607;29;20243;-81
2022/12/07 11:24:19;;;;;;;19.40;12.07;;;4.90;99.90;;;;;;4872646;29;20216;-86
2022/12/07 11:27:09;;;;;;;17.77;11.93;;;4.90;99.90;;;;;;4863741;29;20242;-84
2022/12/07 11:29:50;;;;;;;23.63;12.10;;;5.00;99.90;;;;;;4849520;29;20205;-81
2022/12/07 11:32:50;;;;;;;20.03;13.20;;;5.10;99.90;;;;;;4864631;29;20177;-85
2022/12/07 11:35:31;;;;;;;23.50;12.37;;;5.20;99.90;;;;;;4864016;29;20182;-85
2022/12/07 11:38:07;;;;;;;18.63;11.40;;;5.20;99.90;;;;;;4867315;29;20235;-82
2022/12/07 11:40:36;;;;;;;21.73;12.57;;;5.30;99.90;;;;;;4873674;29;20170;-82
2022/12/07 11:43:27;;;;;;;19.43;12.63;;;5.40;99.90;;;;;;4925947;29;20202;-83
2022/12/07 11:46:15;;;;;;;22.63;12.23;;;5.50;99.90;;;;;;4952529;29;20172;-84
2022/12/07 11:49:00;;;;;;;19.40;11.90;;;5.50;99.90;;;;;;4952321;29;20183;-83
2022/12/07 11:51:27;;;;;;;20.10;11.53;;;5.50;99.90;;;;;;4945434;29;20166;-83
2022/12/07 11:54:02;;;;;;;20.57;11.63;;;5.50;99.90;;;;;;4948666;29;20315;-80
2022/12/07 11:56:30;;;;;;;20.37;12.30;;;5.40;99.90;;;;;;4953921;29;20183;-84
2022/12/07 11:59:32;;;;;;;21.93;12.80;;;5.30;99.90;;;;;;4927960;29;20235;-82
2022/12/07 12:02:19;;;;;;;20.30;12.97;;;5.30;99.90;;;;;;4861525;29;20293;-77
2022/12/07 12:04:58;;;;;;;24.70;11.90;;;5.20;99.90;;;;;;4863956;29;20171;-80
2022/12/07 12:07:26;;;;;;;21.37;11.87;;;5.20;99.90;;;;;;4861772;29;20191;-79
2022/12/07 12:10:02;;;;;;;16.93;11.53;;;5.30;99.90;;;;;;4861736;29;20179;-78
2022/12/07 12:12:56;;;;;;;20.27;12.53;;;5.40;99.90;;;;;;4861836;29;20277;-80
2022/12/07 12:15:27;;;;;;;16.07;11.13;;;5.50;99.90;;;;;;4846960;29;20375;-76
2022/12/07 12:18:30;;;;;;;23.93;11.47;;;5.80;99.90;;;;;;4861816;29;20213;-79
2022/12/07 12:21:02;;;;;;;23.87;12.07;;;6.20;99.90;;;;;;4866266;29;20191;-84
2022/12/07 12:24:04;;;;;;;20.77;11.80;;;6.20;99.90;;;;;;4862749;29;20175;-81
2022/12/07 12:26:35;;;;;;;22.07;12.23;;;6.30;99.90;;;;;;4847112;29;20187;-84
2022/12/07 12:29:08;;;;;;;21.73;12.33;;;6.30;99.90;;;;;;4862508;29;20187;-83
2022/12/07 12:31:41;;;;;;;20.40;12.33;;;6.30;99.90;;;;;;4862315;29;20189;-85
2022/12/07 12:34:56;;;;;;;17.80;11.30;;;6.30;99.90;;;;;;4862126;29;20197;-86
2022/12/07 12:37:34;;;;;;;20.43;11.53;;;6.20;99.90;;;;;;4862467;29;20686;-84
2022/12/07 12:40:15;;;;;;;18.13;11.97;;;6.10;99.90;;;;;;4939736;29;20476;-84
2022/12/07 12:42:55;;;;;;;22.87;11.40;;;6.00;99.90;;;;;;4939518;29;20218;-85
2022/12/07 12:45:21;;;;;;;17.03;11.47;;;6.00;99.90;;;;;;4939841;29;20184;-81
2022/12/07 12:47:56;;;;;;;17.90;11.63;;;6.00;99.90;;;;;;4940482;29;20186;-78
2022/12/07 12:50:37;;;;;;;21.37;12.10;;;5.90;99.90;;;;;;4940295;29;20268;-85
2022/12/07 12:53:19;;;;;;;17.23;11.90;;;5.90;99.90;;;;;;4939693;29;20186;-85
2022/12/07 12:56:26;;;;;;;19.80;12.60;;;5.80;99.90;;;;;;4949676;29;20160;-85
2022/12/07 12:59:18;;;;;;;20.07;11.77;;;5.80;99.90;;;;;;4932801;29;20208;-85
2022/12/07 13:01:44;;;;;;;19.00;11.77;;;5.70;99.90;;;;;;4938557;29;20236;-84
2022/12/07 13:04:34;;;;;;;20.13;12.50;;;5.60;99.90;;;;;;4939132;29;20179;-84
2022/12/07 13:07:00;;;;;;;23.77;12.70;;;5.60;99.90;;;;;;4939339;29;20173;-79
2022/12/07 13:09:32;;;;;;;20.27;11.40;;;5.50;99.90;;;;;;4924279;29;20184;-81
2022/12/07 13:12:03;;;;;;;18.63;11.90;;;5.50;99.90;;;;;;4939614;29;20762;-80
2022/12/07 13:14:40;;;;;;;19.47;11.47;;;5.50;99.90;;;;;;4937494;29;20160;-79
2022/12/07 13:17:11;;;;;;;24.77;11.87;;;5.40;99.90;;;;;;4919816;29;20181;-79